createdAt,value
2023-01-04T00:00:20.824Z,18.95
2023-01-04T00:02:49.409Z,16.20
2023-01-04T00:05:18.878Z,14.05
2023-01-04T00:07:47.247Z,13.48
2023-01-04T00:10:15.976Z,14.23
2023-01-04T00:12:44.258Z,13.43
2023-01-04T00:15:14.765Z,24.00
2023-01-04T00:17:44.023Z,18.73
2023-01-04T00:20:14.852Z,20.70
2023-01-04T00:22:43.206Z,14.77
2023-01-04T00:25:17.913Z,17.33
2023-01-04T00:27:46.342Z,18.75
2023-01-04T00:30:23.370Z,21.45
2023-01-04T00:32:51.873Z,16.02
2023-01-04T00:35:44.094Z,23.52
2023-01-04T00:38:08.467Z,18.33
2023-01-04T00:40:36.759Z,31.27
2023-01-04T00:43:05.273Z,17.48
2023-01-04T00:45:40.008Z,17.85
2023-01-04T00:48:08.245Z,18.23
2023-01-04T00:50:36.825Z,29.98
2023-01-04T00:53:05.096Z,24.63
2023-01-04T00:55:33.851Z,20.98
2023-01-04T00:58:02.173Z,28.33
2023-01-04T01:00:30.715Z,24.95
2023-01-04T01:03:00.968Z,24.42
2023-01-04T01:05:29.836Z,21.02
2023-01-04T01:07:58.618Z,14.70
2023-01-04T01:10:26.896Z,25.02
2023-01-04T01:12:55.559Z,21.85
2023-01-04T01:15:23.819Z,19.95
2023-01-04T01:17:52.043Z,19.55
2023-01-04T01:20:26.511Z,21.63
2023-01-04T01:22:55.282Z,21.15
2023-01-04T01:25:23.640Z,24.27
2023-01-04T01:27:51.940Z,20.88
2023-01-04T01:30:20.376Z,24.17
2023-01-04T01:32:48.681Z,23.60
2023-01-04T01:35:17.206Z,24.80
2023-01-04T01:38:05.967Z,22.95
2023-01-04T01:40:34.485Z,21.88
2023-01-04T01:43:02.955Z,28.08
2023-01-04T01:45:34.669Z,28.50
2023-01-04T01:48:08.357Z,21.33
2023-01-04T01:50:40.633Z,25.52
2023-01-04T01:53:13.692Z,27.50
2023-01-04T01:55:43.946Z,29.27
2023-01-04T01:58:19.496Z,31.05
2023-01-04T02:00:47.800Z,22.65
2023-01-04T02:03:20.076Z,24.60
2023-01-04T02:05:53.669Z,31.52
2023-01-04T02:08:41.273Z,28.63
2023-01-04T02:11:10.259Z,31.15
2023-01-04T02:13:59.876Z,29.95
2023-01-04T02:16:56.785Z,33.22
2023-01-04T02:19:44.229Z,28.02
2023-01-04T02:22:49.614Z,25.38
2023-01-04T02:25:50.593Z,26.98
2023-01-04T02:28:33.815Z,28.80
2023-01-04T02:31:38.843Z,26.55
2023-01-04T02:34:15.729Z,32.10
2023-01-04T02:36:56.500Z,30.50
2023-01-04T02:39:35.893Z,31.17
2023-01-04T02:42:13.558Z,31.63
2023-01-04T02:44:54.654Z,31.42
2023-01-04T02:47:49.953Z,34.25
2023-01-04T02:50:32.425Z,28.25
2023-01-04T02:53:03.151Z,36.08
2023-01-04T02:55:42.024Z,36.17
2023-01-04T02:58:15.197Z,31.33
2023-01-04T03:01:12.773Z,29.65
2023-01-04T03:04:13.615Z,33.33
2023-01-04T03:06:48.858Z,33.05
2023-01-04T03:09:21.002Z,38.28
2023-01-04T03:12:13.327Z,33.30
2023-01-04T03:14:46.868Z,33.60
2023-01-04T03:17:17.560Z,33.97
2023-01-04T03:20:19.873Z,30.23
2023-01-04T03:26:15.039Z,31.98
2023-01-04T03:29:02.275Z,29.58
2023-01-04T03:37:42.859Z,31.55
2023-01-04T03:40:42.128Z,37.78
2023-01-04T03:43:34.701Z,34.13
2023-01-04T03:46:25.795Z,41.05
2023-01-04T03:48:59.555Z,36.65
2023-01-04T03:51:32.530Z,34.85
2023-01-04T03:54:20.340Z,33.17
2023-01-04T03:56:50.815Z,35.30
2023-01-04T03:59:19.165Z,36.13
2023-01-04T04:01:47.731Z,30.40
2023-01-04T04:10:17.435Z,38.85
2023-01-04T04:12:45.710Z,32.90
2023-01-04T04:15:14.032Z,35.42
2023-01-04T04:17:42.661Z,39.25
2023-01-04T04:20:13.479Z,33.15
2023-01-04T04:22:42.246Z,33.30
2023-01-04T04:25:11.536Z,35.53
2023-01-04T04:27:41.261Z,34.40
2023-01-04T04:30:10.629Z,30.48
2023-01-04T04:32:39.045Z,25.13
2023-01-04T04:35:08.548Z,33.75
2023-01-04T04:37:37.371Z,37.92
2023-01-04T04:40:06.229Z,31.65
2023-01-04T04:42:33.506Z,35.38
2023-01-04T04:45:03.502Z,34.50
2023-01-04T04:47:32.101Z,31.60
2023-01-04T04:50:00.518Z,37.45
2023-01-04T04:52:29.131Z,38.53
2023-01-04T04:54:57.527Z,38.20
2023-01-04T04:57:25.866Z,37.85
2023-01-04T04:59:54.273Z,32.92
2023-01-04T05:02:24.169Z,30.20
2023-01-04T05:04:52.728Z,29.15
2023-01-04T05:07:21.132Z,35.92
2023-01-04T05:09:49.544Z,31.65
2023-01-04T05:12:35.175Z,30.65
2023-01-04T05:15:03.643Z,34.85
2023-01-04T05:17:35.532Z,40.20
2023-01-04T05:20:04.536Z,29.52
2023-01-04T05:22:33.005Z,39.67
2023-01-04T05:25:01.781Z,33.85
2023-01-04T05:27:30.237Z,34.50
2023-01-04T05:30:15.807Z,42.10
2023-01-04T05:32:45.531Z,39.15
2023-01-04T05:35:14.059Z,31.90
2023-01-04T05:37:43.172Z,35.33
2023-01-04T05:40:12.310Z,38.53
2023-01-04T05:42:40.608Z,40.10
2023-01-04T05:45:09.657Z,37.65
2023-01-04T05:47:38.663Z,35.03
2023-01-04T05:50:10.190Z,39.92
2023-01-04T05:52:39.359Z,39.10
2023-01-04T05:55:08.770Z,35.03
2023-01-04T05:57:37.697Z,38.45
2023-01-04T06:00:08.974Z,40.75
2023-01-04T06:02:44.600Z,32.53
2023-01-04T06:05:14.544Z,41.28
2023-01-04T06:07:43.349Z,35.15
2023-01-04T06:10:13.823Z,40.60
2023-01-04T06:12:42.658Z,40.92
2023-01-04T06:15:12.497Z,43.75
2023-01-04T06:17:41.635Z,39.13
2023-01-04T06:20:11.846Z,38.13
2023-01-04T06:22:43.112Z,43.83
2023-01-04T06:25:11.899Z,38.80
2023-01-04T06:27:40.285Z,39.25
2023-01-04T06:30:11.153Z,38.97
2023-01-04T06:32:39.706Z,44.17
2023-01-04T06:35:08.620Z,39.03
2023-01-04T06:37:37.049Z,38.30
2023-01-04T06:40:13.318Z,43.95
2023-01-04T06:42:47.531Z,42.85
2023-01-04T06:45:18.513Z,39.50
2023-01-04T06:47:48.428Z,47.38
2023-01-04T06:50:17.430Z,42.22
2023-01-04T06:52:46.072Z,43.53
2023-01-04T06:55:17.999Z,38.13
2023-01-04T06:57:46.438Z,39.90
2023-01-04T07:00:16.039Z,38.78
2023-01-04T07:03:13.829Z,37.58
2023-01-04T07:05:32.859Z,46.13
2023-01-04T07:08:07.647Z,47.08
2023-01-04T07:11:20.259Z,43.42
2023-01-04T07:13:50.199Z,43.72
2023-01-04T07:16:18.609Z,42.35
2023-01-04T07:18:48.188Z,39.95
2023-01-04T07:21:16.764Z,48.63
2023-01-04T07:23:45.267Z,46.60
2023-01-04T07:26:13.767Z,43.30
2023-01-04T07:28:59.084Z,43.75
2023-01-04T07:31:28.953Z,42.70
2023-01-04T07:33:57.459Z,46.65
2023-01-04T07:36:25.852Z,49.45
2023-01-04T07:38:54.321Z,43.22
2023-01-04T07:41:22.790Z,48.83
2023-01-04T07:43:51.268Z,51.17
2023-01-04T07:46:20.021Z,48.10
2023-01-04T07:49:17.424Z,56.53
2023-01-04T07:51:47.349Z,65.97
2023-01-04T07:54:16.561Z,45.42
2023-01-04T07:56:45.428Z,52.03
2023-01-04T07:59:15.586Z,46.53
2023-01-04T08:01:44.459Z,51.30
2023-01-04T08:04:16.263Z,52.33
2023-01-04T08:06:46.869Z,54.92
2023-01-04T08:09:15.525Z,56.50
2023-01-04T08:11:43.920Z,41.17
2023-01-04T08:14:12.761Z,49.53
2023-01-04T08:16:43.213Z,44.08
2023-01-04T08:19:16.608Z,47.90
2023-01-04T08:21:45.760Z,50.10
2023-01-04T08:24:14.821Z,52.13
2023-01-04T08:26:43.787Z,44.58
2023-01-04T08:29:13.044Z,55.88
2023-01-04T08:31:42.342Z,47.17
2023-01-04T08:34:11.458Z,65.93
2023-01-04T08:36:50.617Z,61.42
2023-01-04T08:39:19.171Z,55.85
2023-01-04T08:42:00.198Z,56.10
2023-01-04T08:44:29.737Z,46.63
2023-01-04T08:46:58.964Z,54.67
2023-01-04T08:49:27.403Z,56.97
2023-01-04T08:52:39.225Z,55.47
2023-01-04T08:55:13.358Z,63.85
2023-01-04T08:57:43.096Z,50.38
2023-01-04T09:00:13.512Z,53.22
2023-01-04T09:02:42.043Z,57.53
2023-01-04T09:05:10.724Z,44.60
2023-01-04T09:07:51.055Z,49.47
2023-01-04T09:10:20.927Z,50.10
2023-01-04T09:12:50.297Z,46.05
2023-01-04T09:15:19.327Z,49.33
2023-01-04T09:18:20.393Z,48.50
2023-01-04T09:20:36.155Z,49.72
2023-01-04T09:23:04.531Z,53.03
2023-01-04T09:25:35.274Z,55.17
2023-01-04T09:28:03.521Z,53.28
2023-01-04T09:30:35.074Z,52.80
2023-01-04T09:33:03.438Z,54.47
2023-01-04T09:35:31.882Z,55.22
2023-01-04T09:38:00.332Z,53.58
2023-01-04T09:40:42.635Z,57.30
2023-01-04T09:43:20.343Z,48.15
2023-01-04T09:45:53.525Z,51.47
2023-01-04T09:48:26.304Z,47.75
2023-01-04T09:50:58.947Z,53.67
2023-01-04T09:53:32.471Z,57.25
2023-01-04T09:56:09.882Z,55.83
2023-01-04T09:58:41.618Z,53.40
2023-01-04T10:01:16.192Z,49.95
2023-01-04T10:03:54.630Z,52.55
2023-01-04T10:06:22.925Z,53.92
2023-01-04T10:08:51.294Z,45.88
2023-01-04T10:12:10.141Z,46.67
2023-01-04T10:15:07.810Z,52.10
2023-01-04T10:21:26.304Z,53.50
2023-01-04T10:23:59.936Z,56.58
2023-01-04T10:26:34.859Z,46.17
2023-01-04T10:29:27.041Z,44.30
2023-01-04T10:32:03.078Z,44.47
2023-01-04T10:34:34.513Z,51.95
2023-01-04T10:37:14.315Z,46.83
2023-01-04T10:39:44.844Z,40.03
2023-01-04T10:42:20.052Z,39.72
2023-01-04T10:45:08.471Z,39.38
2023-01-04T10:47:49.007Z,45.08
2023-01-04T10:50:21.939Z,31.35
2023-01-04T10:52:55.956Z,34.25
2023-01-04T10:55:29.028Z,42.55
2023-01-04T10:58:00.744Z,35.70
2023-01-04T11:00:35.098Z,35.22
2023-01-04T11:03:10.162Z,29.75
2023-01-04T11:05:42.818Z,33.53
2023-01-04T11:08:15.201Z,31.85
2023-01-04T11:10:47.479Z,28.35
2023-01-04T11:13:15.802Z,34.03
2023-01-04T11:15:45.521Z,35.03
2023-01-04T11:18:17.190Z,32.92
2023-01-04T11:20:45.785Z,28.50
2023-01-04T11:23:16.910Z,29.15
2023-01-04T11:25:55.801Z,32.50
2023-01-04T11:28:29.405Z,33.38
2023-01-04T11:31:05.167Z,26.33
2023-01-04T11:33:53.724Z,35.30
2023-01-04T11:36:37.514Z,34.63
2023-01-04T11:39:18.867Z,30.20
2023-01-04T11:42:02.580Z,32.88
2023-01-04T11:44:33.115Z,27.13
2023-01-04T11:47:08.515Z,31.50
2023-01-04T11:49:38.918Z,27.30
2023-01-04T11:52:08.669Z,32.45
2023-01-04T11:54:36.975Z,27.25
2023-01-04T11:57:11.615Z,31.10
2023-01-04T11:59:40.236Z,28.45
2023-01-04T12:05:28.162Z,33.08
2023-01-04T12:07:57.883Z,34.00
2023-01-04T12:10:28.655Z,34.50
2023-01-04T12:12:58.217Z,36.63
2023-01-04T12:15:35.691Z,32.35
2023-01-04T12:18:08.535Z,37.33
2023-01-04T12:20:38.253Z,40.47
2023-01-04T12:23:07.644Z,31.38
2023-01-04T12:25:40.363Z,36.40
2023-01-04T12:28:28.845Z,30.83
2023-01-04T12:30:57.155Z,34.22
2023-01-04T12:33:42.077Z,34.33
2023-01-04T12:36:13.387Z,31.20
2023-01-04T12:39:05.049Z,43.10
2023-01-04T12:42:19.652Z,33.55
2023-01-04T12:45:18.748Z,35.78
2023-01-04T12:48:12.428Z,29.55
2023-01-04T12:51:32.061Z,35.42
2023-01-04T12:54:04.806Z,38.35
2023-01-04T12:57:10.553Z,39.90
2023-01-04T12:59:39.680Z,41.72
2023-01-04T13:02:20.248Z,35.33
2023-01-04T13:04:59.105Z,35.40
2023-01-04T13:07:44.905Z,35.63
2023-01-04T13:10:35.053Z,40.70
2023-01-04T13:13:29.707Z,32.72
2023-01-04T13:16:19.010Z,35.58
2023-01-04T13:18:51.625Z,33.33
2023-01-04T13:21:28.622Z,33.03
2023-01-04T13:23:59.517Z,38.40
2023-01-04T13:26:37.419Z,34.03
2023-01-04T13:29:17.927Z,31.98
2023-01-04T13:31:56.305Z,38.90
2023-01-04T13:34:27.525Z,32.92
2023-01-04T13:37:08.143Z,33.17
2023-01-04T13:39:37.986Z,32.08
2023-01-04T13:42:13.912Z,31.63
2023-01-04T13:45:20.879Z,37.15
2023-01-04T13:47:53.798Z,41.30
2023-01-04T13:50:35.645Z,38.25
2023-01-04T13:53:07.987Z,45.22
2023-01-04T13:55:38.764Z,36.88
2023-01-04T13:58:18.638Z,33.47
2023-01-04T14:00:51.535Z,28.38
2023-01-04T14:03:35.181Z,33.45
2023-01-04T14:06:29.144Z,41.30
2023-01-04T14:09:04.178Z,36.72
2023-01-04T14:11:52.539Z,37.88
2023-01-04T14:14:34.918Z,35.40
2023-01-04T14:17:17.333Z,30.15
2023-01-04T14:19:48.614Z,33.35
2023-01-04T14:22:35.897Z,29.27
2023-01-04T14:25:37.751Z,34.28
2023-01-04T14:28:41.810Z,27.77
2023-01-04T14:31:32.680Z,24.30
2023-01-04T14:34:06.108Z,28.20
2023-01-04T14:36:42.021Z,31.02
2023-01-04T14:39:13.527Z,27.35
2023-01-04T14:41:43.215Z,26.85
2023-01-04T14:44:14.520Z,32.10
2023-01-04T14:46:47.114Z,22.35
2023-01-04T14:49:16.075Z,30.50
2023-01-04T14:51:47.715Z,29.27
2023-01-04T14:54:23.971Z,32.28
2023-01-04T14:56:53.825Z,28.55
2023-01-04T14:59:24.355Z,27.85
2023-01-04T15:01:56.132Z,31.30
2023-01-04T15:04:25.117Z,30.52
2023-01-04T15:06:56.362Z,32.50
2023-01-04T15:09:25.209Z,34.72
2023-01-04T15:11:53.684Z,33.60
2023-01-04T15:14:21.954Z,32.90
2023-01-04T15:16:50.722Z,36.90
2023-01-04T15:19:20.428Z,34.40
2023-01-04T15:21:49.383Z,29.35
2023-01-04T15:24:17.760Z,33.80
2023-01-04T15:26:46.185Z,34.50
2023-01-04T15:29:14.428Z,36.33
2023-01-04T15:31:43.907Z,39.88
2023-01-04T15:34:12.213Z,35.33
2023-01-04T15:36:43.228Z,28.27
2023-01-04T15:39:14.188Z,35.30
2023-01-04T15:42:00.192Z,30.65
2023-01-04T15:44:28.898Z,29.52
2023-01-04T15:46:59.563Z,28.48
2023-01-04T15:49:33.422Z,29.98
2023-01-04T15:52:03.265Z,28.85
2023-01-04T15:54:31.549Z,33.15
2023-01-04T15:56:59.886Z,31.38
2023-01-04T15:59:28.441Z,28.38
2023-01-04T16:01:56.863Z,29.58
2023-01-04T16:04:26.042Z,28.42
2023-01-04T16:06:54.315Z,32.47
2023-01-04T16:09:24.277Z,26.48
2023-01-04T16:12:10.356Z,30.85
2023-01-04T16:14:40.171Z,24.50
2023-01-04T16:17:08.535Z,29.02
2023-01-04T16:19:37.039Z,32.42
2023-01-04T16:22:05.357Z,29.52
2023-01-04T16:25:09.374Z,24.10
2023-01-04T16:27:23.810Z,23.02
2023-01-04T16:29:52.829Z,27.80
2023-01-04T16:32:21.604Z,29.70
2023-01-04T16:34:51.563Z,27.60
2023-01-04T16:37:20.523Z,23.30
2023-01-04T16:40:08.155Z,22.67
2023-01-04T16:42:37.123Z,28.08
2023-01-04T16:45:11.280Z,22.75
2023-01-04T16:47:41.752Z,25.73
2023-01-04T16:50:14.832Z,23.50
2023-01-04T16:52:46.393Z,17.50
2023-01-04T16:55:23.745Z,21.00
2023-01-04T16:57:52.967Z,20.73
2023-01-04T17:00:23.945Z,19.25
2023-01-04T17:02:58.647Z,23.05
2023-01-04T17:05:26.970Z,20.08
2023-01-04T17:07:58.453Z,19.98
2023-01-04T17:10:29.827Z,25.98
2023-01-04T17:12:58.721Z,17.13
2023-01-04T17:15:44.147Z,15.60
2023-01-04T17:18:15.338Z,22.83
2023-01-04T17:20:45.943Z,15.98
2023-01-04T17:23:14.284Z,20.52
2023-01-04T17:25:44.177Z,28.10
2023-01-04T17:28:12.442Z,19.60
2023-01-04T17:30:41.561Z,17.23
2023-01-04T17:33:15.819Z,17.05
2023-01-04T17:35:44.420Z,19.98
2023-01-04T17:38:12.818Z,24.10
2023-01-04T17:40:41.085Z,18.67
2023-01-04T17:43:14.504Z,19.10
2023-01-04T17:45:43.951Z,20.48
2023-01-04T17:48:12.239Z,22.50
2023-01-04T17:50:40.514Z,20.15
2023-01-04T17:53:09.297Z,23.23
2023-01-04T17:55:40.416Z,19.05
2023-01-04T17:58:12.536Z,20.38
2023-01-04T18:00:42.297Z,20.48
2023-01-04T18:03:11.244Z,21.33
2023-01-04T18:05:51.492Z,21.00
2023-01-04T18:08:27.917Z,22.05
2023-01-04T18:11:09.728Z,21.80
2023-01-04T18:16:24.791Z,24.90
2023-01-04T18:18:53.799Z,19.75
2023-01-04T18:21:28.541Z,21.98
2023-01-04T18:29:39.211Z,20.90
2023-01-04T18:32:07.567Z,20.58
2023-01-04T18:34:36.189Z,22.00
2023-01-04T18:37:04.727Z,21.95
2023-01-04T18:39:33.095Z,20.27
2023-01-04T18:42:01.347Z,29.27
2023-01-04T18:44:34.345Z,26.42
2023-01-04T18:47:05.102Z,23.40
2023-01-04T18:49:33.389Z,24.23
2023-01-04T18:52:07.819Z,28.67
2023-01-04T18:54:36.077Z,20.92
2023-01-04T18:57:05.255Z,21.83
2023-01-04T18:59:34.239Z,23.05
2023-01-04T19:02:04.450Z,31.35
2023-01-04T19:04:35.028Z,24.52
2023-01-04T19:07:03.692Z,23.83
2023-01-04T19:09:32.098Z,23.45
2023-01-04T19:12:00.479Z,24.75
2023-01-04T19:14:28.870Z,23.27
2023-01-04T19:17:00.263Z,22.42
2023-01-04T19:19:30.013Z,20.83
2023-01-04T19:21:58.553Z,22.58
2023-01-04T19:24:27.007Z,30.48
2023-01-04T19:26:57.816Z,22.13
2023-01-04T19:29:26.064Z,24.55
2023-01-04T19:31:54.254Z,24.20
2023-01-04T19:34:22.483Z,22.63
2023-01-04T19:36:52.208Z,23.30
2023-01-04T19:39:20.416Z,27.90
2023-01-04T19:41:48.620Z,25.63
2023-01-04T19:44:17.494Z,20.17
2023-01-04T19:46:45.734Z,24.02
2023-01-04T19:49:15.473Z,22.15
2023-01-04T19:51:46.487Z,23.65
2023-01-04T19:54:21.606Z,22.65
2023-01-04T19:56:53.105Z,24.67
2023-01-04T19:59:21.333Z,27.33
2023-01-04T20:01:49.815Z,27.80
2023-01-04T20:04:18.280Z,28.63
2023-01-04T20:06:46.515Z,27.75
2023-01-04T20:09:18.457Z,22.23
2023-01-04T20:11:46.825Z,26.85
2023-01-04T20:14:17.578Z,25.00
2023-01-04T20:16:45.866Z,25.52
2023-01-04T20:19:14.308Z,25.15
2023-01-04T20:21:42.799Z,30.25
2023-01-04T20:24:11.132Z,27.58
2023-01-04T20:26:41.684Z,25.52
2023-01-04T20:29:09.957Z,26.58
2023-01-04T20:31:43.783Z,31.48
2023-01-04T20:34:14.209Z,25.10
2023-01-04T20:36:42.624Z,26.50
2023-01-04T20:39:10.864Z,25.75
2023-01-04T20:42:01.550Z,27.30
2023-01-04T20:44:28.898Z,38.88
2023-01-04T20:46:57.125Z,26.08
2023-01-04T20:49:27.484Z,31.42
2023-01-04T20:51:55.829Z,29.08
2023-01-04T20:54:24.219Z,28.70
2023-01-04T20:56:53.822Z,27.90
2023-01-04T20:59:22.134Z,23.45
2023-01-04T21:01:50.846Z,27.92
2023-01-04T21:04:19.279Z,22.80
2023-01-04T21:06:47.747Z,24.13
2023-01-04T21:09:16.052Z,22.50
2023-01-04T21:11:44.402Z,26.25
2023-01-04T21:14:14.101Z,28.08
2023-01-04T21:16:42.498Z,23.33
2023-01-04T21:19:11.104Z,25.50
2023-01-04T21:21:39.843Z,25.10
2023-01-04T21:24:10.570Z,20.83
2023-01-04T21:26:40.968Z,29.77
2023-01-04T21:29:16.853Z,26.35
2023-01-04T21:31:45.155Z,25.60
2023-01-04T21:34:17.065Z,27.48
2023-01-04T21:36:47.880Z,29.02
2023-01-04T21:39:16.351Z,29.20
2023-01-04T21:41:48.079Z,26.08
2023-01-04T21:44:18.366Z,30.42
2023-01-04T21:46:46.771Z,32.05
2023-01-04T21:49:15.138Z,35.20
2023-01-04T21:51:43.549Z,29.70
2023-01-04T21:54:12.140Z,34.67
2023-01-04T21:56:40.546Z,32.47
2023-01-04T21:59:08.938Z,29.45
2023-01-04T22:01:38.781Z,31.48
2023-01-04T22:04:07.580Z,34.05
2023-01-04T22:06:38.817Z,34.20
2023-01-04T22:09:07.427Z,32.95
2023-01-04T22:11:35.673Z,33.58
2023-01-04T22:14:04.935Z,39.35
2023-01-04T22:16:33.336Z,29.67
2023-01-04T22:19:03.089Z,33.58
2023-01-04T22:21:31.388Z,39.63
2023-01-04T22:23:59.720Z,69.75
2023-01-04T22:26:27.968Z,40.75
2023-01-04T22:28:56.223Z,30.45
2023-01-04T22:31:27.595Z,38.10
2023-01-04T22:33:55.882Z,38.80
2023-01-04T22:36:26.519Z,101.22
2023-01-04T22:38:57.073Z,27.88
2023-01-04T22:41:27.549Z,32.10
2023-01-04T22:43:57.699Z,31.35
2023-01-04T22:46:27.162Z,31.38
2023-01-04T22:48:55.786Z,34.55
2023-01-04T22:51:28.114Z,39.90
2023-01-04T22:53:57.874Z,37.33
2023-01-04T22:56:26.915Z,32.33
2023-01-04T22:58:57.559Z,33.28
2023-01-04T23:01:27.660Z,29.55
2023-01-04T23:03:57.301Z,29.30
2023-01-04T23:06:33.801Z,29.38
2023-01-04T23:09:04.963Z,33.28
2023-01-04T23:11:35.224Z,32.83
2023-01-04T23:14:04.876Z,31.90
2023-01-04T23:16:33.755Z,32.60
2023-01-04T23:19:08.126Z,39.03
2023-01-04T23:21:39.856Z,34.42
2023-01-04T23:24:08.860Z,35.17
2023-01-04T23:26:37.157Z,38.88
2023-01-04T23:29:05.524Z,35.15
2023-01-04T23:31:37.009Z,40.55
2023-01-04T23:34:07.680Z,39.63
2023-01-04T23:36:43.231Z,40.20
2023-01-04T23:39:15.486Z,34.35
2023-01-04T23:41:47.703Z,32.33
2023-01-04T23:44:18.998Z,38.95
2023-01-04T23:46:48.484Z,42.17
2023-01-04T23:49:16.865Z,37.03
2023-01-04T23:51:51.755Z,49.13
2023-01-04T23:54:20.468Z,42.40
2023-01-04T23:56:48.926Z,37.30
2023-01-04T23:59:17.194Z,38.03
